createdAt,value
2022-09-07T00:00:45.405Z,937.57
2022-09-07T00:01:45.906Z,937.59
2022-09-07T00:02:46.437Z,937.59
2022-09-07T00:03:46.897Z,937.64
2022-09-07T00:04:47.104Z,937.61
2022-09-07T00:05:47.276Z,937.64
2022-09-07T00:06:48.207Z,937.68
2022-09-07T00:07:48.443Z,937.65
2022-09-07T00:08:48.649Z,937.63
2022-09-07T00:09:49.581Z,937.73
2022-09-07T00:10:49.690Z,937.74
2022-09-07T00:11:49.909Z,937.76
2022-09-07T00:12:50.416Z,937.85
2022-09-07T00:13:51.345Z,937.87
2022-09-07T00:14:51.558Z,937.92
2022-09-07T00:15:52.316Z,937.92
2022-09-07T00:16:52.761Z,937.9
2022-09-07T00:17:52.983Z,937.91
2022-09-07T00:18:53.906Z,937.9
2022-09-07T00:19:54.551Z,937.86
2022-09-07T00:20:55.054Z,937.91
2022-09-07T00:21:55.681Z,937.92
2022-09-07T00:22:56.586Z,938
2022-09-07T00:23:57.502Z,937.89
2022-09-07T00:24:57.712Z,937.87
2022-09-07T00:25:58.447Z,937.94
2022-09-07T00:26:59.075Z,937.95
2022-09-07T00:27:59.283Z,937.96
2022-09-07T00:29:00.225Z,937.86
2022-09-07T00:30:00.879Z,937.91
2022-09-07T00:31:01.574Z,937.9
2022-09-07T00:32:01.796Z,937.84
2022-09-07T00:33:02.721Z,937.8
2022-09-07T00:34:03.650Z,937.8
2022-09-07T00:35:04.280Z,937.84
2022-09-07T00:36:05.311Z,937.81
2022-09-07T00:37:05.561Z,937.83
2022-09-07T00:38:06.071Z,937.78
2022-09-07T00:39:06.582Z,937.77
2022-09-07T00:40:06.859Z,937.76
2022-09-07T00:41:07.700Z,937.8
2022-09-07T00:42:08.053Z,937.81
2022-09-07T00:43:08.977Z,937.82
2022-09-07T00:44:09.191Z,937.81
2022-09-07T00:45:09.417Z,937.81
2022-09-07T00:46:09.746Z,937.81
2022-09-07T00:47:10.549Z,937.83
2022-09-07T00:48:11.477Z,937.86
2022-09-07T00:49:12.175Z,937.81
2022-09-07T00:50:12.675Z,937.78
2022-09-07T00:51:12.880Z,937.78
2022-09-07T00:52:13.531Z,937.77
2022-09-07T00:53:14.038Z,937.74
2022-09-07T00:54:14.243Z,937.68
2022-09-07T00:55:15.153Z,937.73
2022-09-07T00:56:16.198Z,937.7
2022-09-07T00:57:16.822Z,937.73
2022-09-07T00:58:17.033Z,937.76
2022-09-07T00:59:17.577Z,937.74
2022-09-07T01:00:18.512Z,937.82
2022-09-07T01:01:19.220Z,937.84
2022-09-07T01:02:20.262Z,937.89
2022-09-07T01:03:20.888Z,937.9
2022-09-07T01:04:21.805Z,937.9
2022-09-07T01:05:22.428Z,937.81
2022-09-07T01:06:23.434Z,937.81
2022-09-07T01:07:23.977Z,937.78
2022-09-07T01:08:24.371Z,937.78
2022-09-07T01:09:24.994Z,937.77
2022-09-07T01:10:25.898Z,937.76
2022-09-07T01:11:26.099Z,937.77
2022-09-07T01:12:27.021Z,937.81
2022-09-07T01:13:27.252Z,937.75
2022-09-07T01:14:28.177Z,937.73
2022-09-07T01:15:28.808Z,937.7
2022-09-07T01:16:29.748Z,937.73
2022-09-07T01:17:30.700Z,937.74
2022-09-07T01:18:31.063Z,937.79
2022-09-07T01:19:31.367Z,937.76
2022-09-07T01:20:31.579Z,937.72
2022-09-07T01:21:31.782Z,937.69
2022-09-07T01:22:32.289Z,937.72
2022-09-07T01:23:33.214Z,937.71
2022-09-07T01:24:33.858Z,937.75
2022-09-07T01:25:34.785Z,937.72
2022-09-07T01:26:35.065Z,937.7
2022-09-07T01:27:35.290Z,937.7
2022-09-07T01:28:35.935Z,937.72
2022-09-07T01:29:36.958Z,937.69
2022-09-07T01:30:37.859Z,937.74
2022-09-07T01:31:38.335Z,937.72
2022-09-07T01:32:38.544Z,937.7
2022-09-07T01:33:38.870Z,937.7
2022-09-07T01:34:39.798Z,937.69
2022-09-07T01:35:40.018Z,937.68
2022-09-07T01:36:40.304Z,937.75
2022-09-07T01:37:40.802Z,937.7
2022-09-07T01:38:41.659Z,937.69
2022-09-07T01:39:42.643Z,937.63
2022-09-07T01:40:42.912Z,937.58
2022-09-07T01:41:43.816Z,937.6
2022-09-07T01:42:44.734Z,937.56
2022-09-07T01:43:45.659Z,937.55
2022-09-07T01:44:46.578Z,937.58
2022-09-07T01:45:47.479Z,937.56
2022-09-07T01:46:48.567Z,937.58
2022-09-07T01:47:49.218Z,937.55
2022-09-07T01:48:49.420Z,937.56
2022-09-07T01:49:50.018Z,937.6
2022-09-07T01:50:50.214Z,937.62
2022-09-07T01:51:50.408Z,937.59
2022-09-07T01:52:51.328Z,937.61
2022-09-07T01:53:51.956Z,937.64
2022-09-07T01:54:52.172Z,937.61
2022-09-07T01:55:53.092Z,937.62
2022-09-07T01:56:53.520Z,937.6
2022-09-07T01:57:54.440Z,937.57
2022-09-07T01:58:55.342Z,937.64
2022-09-07T01:59:55.567Z,937.61
2022-09-07T02:00:56.497Z,937.59
2022-09-07T02:01:57.252Z,937.59
2022-09-07T02:02:58.245Z,937.58
2022-09-07T02:03:58.754Z,937.56
2022-09-07T02:04:59.012Z,937.52
2022-09-07T02:05:59.633Z,937.53
2022-09-07T02:07:00.503Z,937.52
2022-09-07T02:08:01.134Z,937.47
2022-09-07T02:09:01.788Z,937.47
2022-09-07T02:10:02.286Z,937.47
2022-09-07T02:11:03.281Z,937.49
2022-09-07T02:12:04.183Z,937.45
2022-09-07T02:13:04.382Z,937.42
2022-09-07T02:14:05.297Z,937.41
2022-09-07T02:15:06.216Z,937.42
2022-09-07T02:16:06.474Z,937.42
2022-09-07T02:17:06.828Z,937.47
2022-09-07T02:18:07.355Z,937.47
2022-09-07T02:19:07.999Z,937.48
2022-09-07T02:20:08.920Z,937.48
2022-09-07T02:21:09.839Z,937.46
2022-09-07T02:22:10.748Z,937.45
2022-09-07T02:23:10.963Z,937.37
2022-09-07T02:24:11.883Z,937.36
2022-09-07T02:25:12.784Z,937.37
2022-09-07T02:26:13.288Z,937.35
2022-09-07T02:27:13.444Z,937.39
2022-09-07T02:28:14.387Z,937.42
2022-09-07T02:29:15.473Z,937.41
2022-09-07T02:30:16.022Z,937.39
2022-09-07T02:31:16.987Z,937.37
2022-09-07T02:32:17.529Z,937.42
2022-09-07T02:33:18.160Z,937.36
2022-09-07T02:34:18.665Z,937.34
2022-09-07T02:35:19.162Z,937.4
2022-09-07T02:36:19.362Z,937.32
2022-09-07T02:37:19.948Z,937.3
2022-09-07T02:38:20.592Z,937.31
2022-09-07T02:39:20.788Z,937.34
2022-09-07T02:40:21.835Z,937.31
2022-09-07T02:41:22.778Z,937.36
2022-09-07T02:42:23.715Z,937.33
2022-09-07T02:43:24.379Z,937.31
2022-09-07T02:44:24.881Z,937.39
2022-09-07T02:45:25.781Z,937.4
2022-09-07T02:46:26.043Z,937.46
2022-09-07T02:47:26.812Z,937.45
2022-09-07T02:48:27.745Z,937.47
2022-09-07T02:49:28.401Z,937.51
2022-09-07T02:50:28.595Z,937.5
2022-09-07T02:51:29.494Z,937.53
2022-09-07T02:52:29.997Z,937.51
2022-09-07T02:53:30.196Z,937.55
2022-09-07T02:54:30.405Z,937.52
2022-09-07T02:55:30.609Z,937.51
2022-09-07T02:56:30.815Z,937.51
2022-09-07T02:57:31.249Z,937.5
2022-09-07T02:58:31.665Z,937.43
2022-09-07T02:59:32.398Z,937.38
2022-09-07T03:00:33.326Z,937.4
2022-09-07T03:01:34.309Z,937.35
2022-09-07T03:02:34.753Z,937.38
2022-09-07T03:03:35.070Z,937.28
2022-09-07T03:04:35.715Z,937.29
2022-09-07T03:05:35.914Z,937.29
2022-09-07T03:06:36.470Z,937.27
2022-09-07T03:07:39.012Z,937.31
2022-09-07T03:08:37.639Z,937.33
2022-09-07T03:09:38.543Z,937.33
2022-09-07T03:10:38.769Z,937.31
2022-09-07T03:11:39.699Z,937.29
2022-09-07T03:12:39.920Z,937.29
2022-09-07T03:13:40.260Z,937.27
2022-09-07T03:14:40.884Z,937.28
2022-09-07T03:15:41.446Z,937.31
2022-09-07T03:16:42.427Z,937.31
2022-09-07T03:17:43.448Z,937.29
2022-09-07T03:18:43.651Z,937.35
2022-09-07T03:19:44.156Z,937.36
2022-09-07T03:20:45.058Z,937.33
2022-09-07T03:21:46.006Z,937.31
2022-09-07T03:22:46.935Z,937.29
2022-09-07T03:23:51.228Z,937.28
2022-09-07T03:24:47.649Z,937.27
2022-09-07T03:25:47.849Z,937.29
2022-09-07T03:26:48.043Z,937.29
2022-09-07T03:27:49.050Z,937.29
2022-09-07T03:28:49.274Z,937.31
2022-09-07T03:29:49.500Z,937.31
2022-09-07T03:30:49.886Z,937.3
2022-09-07T03:31:50.209Z,937.29
2022-09-07T03:32:50.834Z,937.32
2022-09-07T03:33:51.735Z,937.31
2022-09-07T03:34:52.240Z,937.34
2022-09-07T03:35:53.286Z,937.35
2022-09-07T03:36:53.907Z,937.35
2022-09-07T03:37:54.647Z,937.35
2022-09-07T03:38:55.149Z,937.41
2022-09-07T03:39:55.562Z,937.41
2022-09-07T03:40:55.837Z,937.46
2022-09-07T03:41:56.182Z,937.47
2022-09-07T03:42:56.686Z,937.51
2022-09-07T03:43:56.888Z,937.47
2022-09-07T03:44:57.116Z,937.47
2022-09-07T03:45:58.162Z,937.5
2022-09-07T03:46:58.468Z,937.51
2022-09-07T03:47:59.492Z,937.55
2022-09-07T03:49:00.389Z,937.57
2022-09-07T03:50:01.309Z,937.63
2022-09-07T03:51:01.806Z,937.55
2022-09-07T03:52:02.732Z,937.57
2022-09-07T03:53:02.945Z,937.56
2022-09-07T03:54:03.169Z,937.66
2022-09-07T03:55:04.092Z,937.6
2022-09-07T03:56:04.291Z,937.61
2022-09-07T03:57:04.935Z,937.57
2022-09-07T03:58:05.383Z,937.59
2022-09-07T03:59:06.325Z,937.59
2022-09-07T04:00:06.546Z,937.59
2022-09-07T04:01:07.263Z,937.61
2022-09-07T04:02:07.792Z,937.63
2022-09-07T04:03:08.497Z,937.58
2022-09-07T04:04:08.701Z,937.62
2022-09-07T04:05:09.617Z,937.61
2022-09-07T04:06:09.807Z,937.58
2022-09-07T04:07:10.008Z,937.57
2022-09-07T04:08:11.032Z,937.58
2022-09-07T04:09:12.021Z,937.62
2022-09-07T04:10:12.953Z,937.66
2022-09-07T04:11:13.599Z,937.63
2022-09-07T04:12:13.818Z,937.61
2022-09-07T04:13:14.746Z,937.55
2022-09-07T04:14:15.395Z,937.62
2022-09-07T04:15:16.290Z,937.62
2022-09-07T04:16:16.613Z,937.61
2022-09-07T04:17:17.605Z,937.66
2022-09-07T04:18:18.355Z,937.65
2022-09-07T04:19:19.113Z,937.63
2022-09-07T04:20:19.731Z,937.63
2022-09-07T04:21:20.226Z,937.68
2022-09-07T04:22:20.449Z,937.66
2022-09-07T04:23:20.654Z,937.63
2022-09-07T04:24:21.145Z,937.64
2022-09-07T04:25:21.347Z,937.66
2022-09-07T04:26:21.569Z,937.7
2022-09-07T04:27:22.513Z,937.72
2022-09-07T04:28:22.965Z,937.74
2022-09-07T04:29:23.123Z,937.71
2022-09-07T04:30:24.045Z,937.72
2022-09-07T04:31:24.366Z,937.72
2022-09-07T04:32:25.048Z,937.69
2022-09-07T04:33:25.541Z,937.72
2022-09-07T04:34:25.734Z,937.71
2022-09-07T04:35:26.232Z,937.67
2022-09-07T04:36:26.729Z,937.68
2022-09-07T04:37:27.630Z,937.7
2022-09-07T04:38:27.937Z,937.67
2022-09-07T04:39:28.882Z,937.76
2022-09-07T04:40:29.749Z,937.74
2022-09-07T04:41:29.967Z,937.69
2022-09-07T04:42:30.466Z,937.69
2022-09-07T04:43:30.774Z,937.64
2022-09-07T04:44:31.707Z,937.72
2022-09-07T04:45:32.337Z,937.7
2022-09-07T04:46:33.391Z,937.78
2022-09-07T04:47:34.304Z,937.71
2022-09-07T04:48:35.317Z,937.69
2022-09-07T04:49:36.214Z,937.74
2022-09-07T04:50:37.138Z,937.75
2022-09-07T04:51:37.660Z,937.73
2022-09-07T04:52:38.162Z,937.76
2022-09-07T04:53:38.834Z,937.78
2022-09-07T04:54:39.407Z,937.78
2022-09-07T04:55:39.613Z,937.83
2022-09-07T04:56:40.114Z,937.79
2022-09-07T04:57:41.023Z,937.79
2022-09-07T04:58:41.142Z,937.86
2022-09-07T04:59:41.686Z,937.87
2022-09-07T05:00:42.309Z,937.86
2022-09-07T05:01:42.809Z,937.86
2022-09-07T05:02:43.418Z,937.89
2022-09-07T05:03:43.610Z,937.86
2022-09-07T05:04:43.811Z,937.89
2022-09-07T05:05:44.204Z,937.93
2022-09-07T05:06:45.135Z,937.91
2022-09-07T05:07:45.636Z,937.93
2022-09-07T05:08:45.766Z,937.97
2022-09-07T05:09:46.397Z,937.9
2022-09-07T05:10:46.944Z,937.89
2022-09-07T05:11:47.549Z,937.95
2022-09-07T05:12:48.051Z,937.98
2022-09-07T05:13:48.976Z,937.96
2022-09-07T05:14:49.326Z,937.99
2022-09-07T05:15:50.246Z,937.91
2022-09-07T05:16:50.943Z,937.98
2022-09-07T05:17:51.031Z,938.04
2022-09-07T05:18:51.473Z,938.01
2022-09-07T05:19:52.119Z,938.01
2022-09-07T05:20:52.322Z,937.97
2022-09-07T05:21:53.219Z,937.98
2022-09-07T05:22:53.425Z,938.03
2022-09-07T05:23:54.325Z,938.02
2022-09-07T05:24:55.254Z,938.05
2022-09-07T05:25:55.759Z,938.03
2022-09-07T05:26:56.684Z,938.07
2022-09-07T05:27:56.894Z,938.08
2022-09-07T05:31:20.898Z,938.03
2022-09-07T05:32:21.309Z,938.01
2022-09-07T05:33:22.422Z,937.95
2022-09-07T05:34:41.897Z,937.98
2022-09-07T05:35:42.585Z,937.99
2022-09-07T05:36:42.811Z,938.02
2022-09-07T05:37:43.740Z,938.04
2022-09-07T05:38:43.962Z,938.04
2022-09-07T05:39:44.517Z,938.04
2022-09-07T05:40:45.514Z,938.02
2022-09-07T05:41:46.420Z,938.05
2022-09-07T05:42:46.634Z,938.05
2022-09-07T05:45:03.584Z,938.15
2022-09-07T05:46:04.568Z,938.08
2022-09-07T05:47:04.871Z,938.13
2022-09-07T05:48:05.528Z,938.1
2022-09-07T05:49:05.729Z,938.12
2022-09-07T05:50:06.231Z,938.14
2022-09-07T05:51:06.949Z,938.11
2022-09-07T05:52:07.170Z,938.14
2022-09-07T05:53:07.393Z,938.12
2022-09-07T05:54:07.902Z,938.09
2022-09-07T05:55:28.600Z,938.11
2022-09-07T05:56:09.716Z,938.06
2022-09-07T05:57:10.421Z,938.13
2022-09-07T05:58:10.925Z,938.09
2022-09-07T05:59:11.470Z,938.11
2022-09-07T06:00:11.992Z,938.13
2022-09-07T06:01:12.100Z,938.13
2022-09-07T06:02:12.850Z,938.17
2022-09-07T06:03:13.735Z,938.17
2022-09-07T06:04:14.533Z,938.21
2022-09-07T06:05:15.458Z,938.21
2022-09-07T06:06:15.659Z,938.2
2022-09-07T06:07:21.897Z,938.2
2022-09-07T06:08:16.075Z,938.18
2022-09-07T06:09:16.634Z,938.21
2022-09-07T06:11:34.339Z,938.13
2022-09-07T06:12:34.541Z,938.14
2022-09-07T06:13:35.375Z,938.18
2022-09-07T06:14:35.606Z,938.22
2022-09-07T06:15:36.541Z,938.27
2022-09-07T06:16:36.822Z,938.3
2022-09-07T06:17:37.471Z,938.29
2022-09-07T06:18:38.390Z,938.3
2022-09-07T06:19:39.322Z,938.29
2022-09-07T06:20:39.826Z,938.3
2022-09-07T06:21:40.565Z,938.29
2022-09-07T06:22:41.508Z,938.29
2022-09-07T06:23:41.879Z,938.32
2022-09-07T06:24:42.207Z,938.33
2022-09-07T06:25:42.434Z,938.31
2022-09-07T06:26:42.931Z,938.32
2022-09-07T06:27:43.539Z,938.36
2022-09-07T06:28:46.697Z,938.43
2022-09-07T06:29:44.607Z,938.45
2022-09-07T06:30:44.943Z,938.38
2022-09-07T06:33:02.308Z,938.49
2022-09-07T06:34:03.504Z,938.52
2022-09-07T06:35:03.733Z,938.54
2022-09-07T06:36:04.679Z,938.56
2022-09-07T06:37:04.892Z,938.57
2022-09-07T06:38:05.817Z,938.61
2022-09-07T06:39:06.044Z,938.58
2022-09-07T06:40:06.322Z,938.58
2022-09-07T06:42:53.696Z,938.61
2022-09-07T06:43:53.921Z,938.6
2022-09-07T06:44:54.269Z,938.53
2022-09-07T06:45:55.405Z,938.56
2022-09-07T06:47:11.279Z,938.6
2022-09-07T06:48:12.205Z,938.66
2022-09-07T06:49:12.411Z,938.66
2022-09-07T06:50:12.647Z,938.7
2022-09-07T06:51:13.173Z,938.75
2022-09-07T06:52:13.400Z,938.72
2022-09-07T06:53:34.660Z,938.76
2022-09-07T06:55:56.635Z,938.69
2022-09-07T06:56:57.138Z,938.66
2022-09-07T06:57:57.366Z,938.69
2022-09-07T06:58:58.277Z,938.68
2022-09-07T06:59:59.207Z,938.71
2022-09-07T07:00:59.885Z,938.73
2022-09-07T07:02:00.220Z,938.76
2022-09-07T07:03:00.488Z,938.76
2022-09-07T07:04:01.468Z,938.71
2022-09-07T07:05:01.699Z,938.74
2022-09-07T07:06:01.918Z,938.77
2022-09-07T07:07:02.127Z,938.72
2022-09-07T07:08:03.043Z,938.71
2022-09-07T07:09:03.256Z,938.68
2022-09-07T07:10:03.978Z,938.71
2022-09-07T07:11:04.150Z,938.73
2022-09-07T07:12:04.783Z,938.78
2022-09-07T07:13:05.132Z,938.7
2022-09-07T07:14:05.867Z,938.7
2022-09-07T07:15:06.516Z,938.71
2022-09-07T07:16:07.523Z,938.74
2022-09-07T07:17:08.057Z,938.77
2022-09-07T07:18:20.141Z,938.69
2022-09-07T07:19:09.299Z,938.77
2022-09-07T07:20:10.209Z,938.76
2022-09-07T07:21:10.447Z,938.76
2022-09-07T07:22:29.374Z,938.79
2022-09-07T07:23:11.188Z,938.74
2022-09-07T07:24:12.005Z,938.77
2022-09-07T07:25:12.240Z,938.76
2022-09-07T07:26:13.149Z,938.77
2022-09-07T07:27:13.371Z,938.77
2022-09-07T07:29:19.480Z,938.78
2022-09-07T07:30:19.865Z,938.81
2022-09-07T07:31:20.522Z,938.79
2022-09-07T07:32:21.446Z,938.77
2022-09-07T07:33:21.653Z,938.83
2022-09-07T07:34:22.819Z,938.79
2022-09-07T07:35:23.476Z,938.83
2022-09-07T07:36:23.678Z,938.9
2022-09-07T07:37:27.919Z,938.89
2022-09-07T07:40:23.521Z,938.96
2022-09-07T07:42:52.088Z,938.96
2022-09-07T07:43:52.427Z,938.97
2022-09-07T07:46:46.159Z,938.97
2022-09-07T07:47:47.041Z,939.02
2022-09-07T07:48:47.268Z,939
2022-09-07T07:49:47.599Z,938.95
2022-09-07T07:50:48.399Z,938.97
2022-09-07T07:53:49.898Z,938.98
2022-09-07T07:54:50.036Z,939.02
2022-09-07T07:55:50.377Z,939.08
2022-09-07T07:56:50.595Z,939.05
2022-09-07T07:57:51.322Z,939.07
2022-09-07T07:58:51.948Z,939.11
2022-09-07T07:59:52.905Z,939.13
2022-09-07T08:00:55.042Z,939.11
2022-09-07T08:01:54.095Z,939.11
2022-09-07T08:02:54.840Z,939.13
2022-09-07T08:03:55.700Z,939.15
2022-09-07T08:04:55.960Z,939.13
2022-09-07T08:05:56.690Z,939.11
2022-09-07T08:06:57.647Z,939.16
2022-09-07T08:07:58.610Z,939.09
2022-09-07T08:08:58.952Z,939.08
2022-09-07T08:09:59.176Z,939.1
2022-09-07T08:10:59.378Z,939.12
2022-09-07T08:12:00.353Z,939.13
2022-09-07T08:13:00.850Z,939.08
2022-09-07T08:14:01.780Z,939.13
2022-09-07T08:15:02.730Z,939.16
2022-09-07T08:16:02.998Z,939.18
2022-09-07T08:17:03.156Z,939.19
2022-09-07T08:18:03.640Z,939.21
2022-09-07T08:19:04.569Z,939.22
2022-09-07T08:20:05.542Z,939.2
2022-09-07T08:21:05.747Z,939.2
2022-09-07T08:22:06.096Z,939.26
2022-09-07T08:23:07.013Z,939.21
2022-09-07T08:24:07.962Z,939.24
2022-09-07T08:25:08.936Z,939.24
2022-09-07T08:26:09.149Z,939.27
2022-09-07T08:27:10.084Z,939.24
2022-09-07T08:28:10.825Z,939.21
2022-09-07T08:29:11.178Z,939.21
2022-09-07T08:30:12.090Z,939.2
2022-09-07T08:31:12.456Z,939.22
2022-09-07T08:32:12.749Z,939.22
2022-09-07T08:33:13.686Z,939.22
2022-09-07T08:34:14.047Z,939.25
2022-09-07T08:35:14.304Z,939.25
2022-09-07T08:36:15.288Z,939.29
2022-09-07T08:37:16.115Z,939.2
2022-09-07T08:38:20.484Z,939.16
2022-09-07T08:39:17.135Z,939.18
2022-09-07T08:40:17.747Z,939.08
2022-09-07T08:41:17.767Z,939.09
2022-09-07T08:42:18.693Z,939.11
2022-09-07T08:43:18.945Z,939.1
2022-09-07T08:44:19.285Z,939.05
2022-09-07T08:45:19.455Z,939.06
2022-09-07T08:46:19.852Z,939.08
2022-09-07T08:47:20.868Z,939.09
2022-09-07T08:48:21.886Z,939.15
2022-09-07T08:49:22.836Z,939.15
2022-09-07T08:50:23.380Z,939.18
2022-09-07T08:51:24.577Z,939.19
2022-09-07T08:52:24.623Z,939.2
2022-09-07T08:53:25.552Z,939.18
2022-09-07T08:54:25.967Z,939.15
2022-09-07T08:55:26.179Z,939.16
2022-09-07T08:56:30.289Z,939.13
2022-09-07T08:57:26.803Z,939.1
2022-09-07T08:58:50.261Z,939.07
2022-09-07T08:59:50.335Z,939.07
2022-09-07T09:00:50.597Z,939.07
2022-09-07T09:02:28.969Z,939.09
2022-09-07T09:03:31.249Z,939.09
2022-09-07T09:06:24.349Z,939.04
2022-09-07T09:07:24.460Z,939.05
2022-09-07T09:08:25.420Z,939.06
2022-09-07T09:09:26.058Z,939.02
2022-09-07T09:10:26.266Z,939.01
2022-09-07T09:11:26.897Z,939.01
2022-09-07T09:12:27.401Z,938.98
2022-09-07T09:13:28.326Z,939
2022-09-07T09:15:29.770Z,938.99
2022-09-07T09:16:30.092Z,938.98
2022-09-07T09:17:30.597Z,938.96
2022-09-07T09:18:30.981Z,938.97
2022-09-07T09:19:31.980Z,938.96
2022-09-07T09:20:32.227Z,938.98
2022-09-07T09:21:33.009Z,938.98
2022-09-07T09:22:33.236Z,938.96
2022-09-07T09:23:34.199Z,938.94
2022-09-07T09:24:35.124Z,938.94
2022-09-07T09:25:36.038Z,938.88
2022-09-07T09:26:36.386Z,938.9
2022-09-07T09:27:36.565Z,938.86
2022-09-07T09:28:37.350Z,938.83
2022-09-07T09:29:37.766Z,938.82
2022-09-07T09:30:38.678Z,938.8
2022-09-07T09:31:39.694Z,938.79
2022-09-07T09:32:40.609Z,938.78
2022-09-07T09:33:41.534Z,938.78
2022-09-07T09:34:41.740Z,938.77
2022-09-07T09:35:42.706Z,938.75
2022-09-07T09:36:42.933Z,938.75
2022-09-07T09:37:43.161Z,938.76
2022-09-07T09:38:43.443Z,938.75
2022-09-07T09:39:44.410Z,938.79
2022-09-07T09:40:45.319Z,938.78
2022-09-07T09:41:46.047Z,938.81
2022-09-07T09:42:46.966Z,938.79
2022-09-07T09:43:47.579Z,938.8
2022-09-07T09:44:47.791Z,938.74
2022-09-07T09:47:29.424Z,938.8
2022-09-07T09:47:50.338Z,938.77
2022-09-07T09:48:51.119Z,938.76
2022-09-07T09:49:51.748Z,938.69
2022-09-07T09:53:22.808Z,938.69
2022-09-07T09:54:23.353Z,938.68
2022-09-07T09:55:34.221Z,938.69
2022-09-07T09:56:24.767Z,938.66
2022-09-07T09:57:25.480Z,938.65
2022-09-07T10:00:30.993Z,938.58
2022-09-07T10:03:05.527Z,938.58
2022-09-07T10:04:23.981Z,938.6
2022-09-07T10:05:21.035Z,938.59
2022-09-07T10:06:22.088Z,938.64
2022-09-07T10:07:22.441Z,938.64
2022-09-07T10:08:23.112Z,938.67
2022-09-07T10:09:23.547Z,938.66
2022-09-07T10:10:24.204Z,938.66
2022-09-07T10:12:04.909Z,938.7
2022-09-07T10:12:25.118Z,938.65
2022-09-07T10:13:25.335Z,938.62
2022-09-07T10:14:25.536Z,938.59
2022-09-07T10:15:26.175Z,938.6
2022-09-07T10:16:26.748Z,938.55
2022-09-07T10:17:27.444Z,938.56
2022-09-07T10:18:28.118Z,938.54
2022-09-07T10:19:28.760Z,938.56
2022-09-07T10:20:29.387Z,938.54
2022-09-07T10:21:30.340Z,938.5
2022-09-07T10:22:30.970Z,938.46
2022-09-07T10:23:31.114Z,938.48
2022-09-07T10:24:32.057Z,938.52
2022-09-07T10:25:32.630Z,938.5
2022-09-07T10:26:33.682Z,938.51
2022-09-07T10:27:33.879Z,938.48
2022-09-07T10:29:35.937Z,938.46
2022-09-07T10:30:35.957Z,938.5
2022-09-07T10:31:36.696Z,938.42
2022-09-07T10:32:37.035Z,938.48
2022-09-07T10:33:37.382Z,938.46
2022-09-07T10:34:37.670Z,938.42
2022-09-07T10:35:38.597Z,938.36
2022-09-07T10:36:39.348Z,938.38
2022-09-07T10:37:40.273Z,938.35
2022-09-07T10:38:41.000Z,938.33
2022-09-07T10:39:41.430Z,938.32
2022-09-07T10:40:42.353Z,938.34
2022-09-07T10:41:42.585Z,938.3
2022-09-07T10:43:20.512Z,938.28
2022-09-07T10:43:43.762Z,938.25
2022-09-07T10:44:44.415Z,938.25
2022-09-07T10:45:45.115Z,938.23
2022-09-07T10:47:01.652Z,938.25
2022-09-07T10:47:46.699Z,938.19
2022-09-07T10:48:47.335Z,938.18
2022-09-07T10:50:49.071Z,938.09
2022-09-07T10:51:49.556Z,938.1
2022-09-07T10:52:50.202Z,938.1
2022-09-07T10:54:29.873Z,938.06
2022-09-07T10:54:51.154Z,938.08
2022-09-07T10:55:51.700Z,938.09
2022-09-07T10:56:52.691Z,938.06
2022-09-07T10:57:52.919Z,938.05
2022-09-07T10:59:09.144Z,938.02
2022-09-07T11:00:10.196Z,938.04
2022-09-07T11:00:54.452Z,938.03
2022-09-07T11:01:55.271Z,938.03
2022-09-07T11:03:56.110Z,938.06
2022-09-07T11:04:56.314Z,938.06
2022-09-07T11:05:57.246Z,938.05
2022-09-07T11:06:58.000Z,938.03
2022-09-07T11:07:58.721Z,938.01
2022-09-07T11:09:59.427Z,938
2022-09-07T11:11:00.214Z,937.97
2022-09-07T11:12:01.412Z,938.01
2022-09-07T11:13:01.807Z,937.95
2022-09-07T11:14:12.783Z,937.97
2022-09-07T11:15:03.564Z,937.96
2022-09-07T11:16:04.683Z,937.96
2022-09-07T11:17:33.995Z,937.9
2022-09-07T11:18:34.382Z,937.92
2022-09-07T11:19:35.560Z,937.91
2022-09-07T11:20:35.550Z,937.88
2022-09-07T11:22:36.794Z,937.86
2022-09-07T11:23:40.831Z,937.83
2022-09-07T11:24:37.861Z,937.82
2022-09-07T11:25:38.112Z,937.85
2022-09-07T11:26:38.458Z,937.82
2022-09-07T11:27:39.190Z,937.87
2022-09-07T11:28:40.117Z,937.81
2022-09-07T11:29:41.036Z,937.87
2022-09-07T11:30:42.062Z,937.85
2022-09-07T11:31:42.789Z,937.89
2022-09-07T11:32:43.721Z,937.88
2022-09-07T11:34:23.613Z,937.9
2022-09-07T11:34:45.334Z,937.9
2022-09-07T11:35:46.293Z,937.92
2022-09-07T11:36:47.224Z,937.91
2022-09-07T11:37:47.619Z,937.89
2022-09-07T11:38:47.844Z,937.92
2022-09-07T11:39:48.527Z,937.92
2022-09-07T11:40:48.811Z,937.91
2022-09-07T11:41:49.620Z,937.92
2022-09-07T11:42:50.187Z,937.85
2022-09-07T11:43:51.015Z,937.86
2022-09-07T11:44:51.518Z,937.79
2022-09-07T11:45:52.468Z,937.8
2022-09-07T11:46:52.615Z,937.77
2022-09-07T11:47:52.765Z,937.8
2022-09-07T11:48:53.404Z,937.78
2022-09-07T11:49:57.258Z,937.77
2022-09-07T11:50:54.611Z,937.77
2022-09-07T11:51:55.138Z,937.77
2022-09-07T11:52:55.653Z,937.81
2022-09-07T11:53:56.295Z,937.8
2022-09-07T11:54:57.233Z,937.76
2022-09-07T11:55:57.569Z,937.73
2022-09-07T11:56:58.165Z,937.73
2022-09-07T11:57:58.574Z,937.77
2022-09-07T11:58:59.228Z,937.76
2022-09-07T11:59:59.956Z,937.74
2022-09-07T12:01:00.784Z,937.74
2022-09-07T12:02:01.000Z,937.72
2022-09-07T12:03:02.038Z,937.72
2022-09-07T12:04:02.335Z,937.7
2022-09-07T12:05:03.236Z,937.64
2022-09-07T12:06:03.240Z,937.68
2022-09-07T12:07:04.152Z,937.63
2022-09-07T12:08:05.144Z,937.68
2022-09-07T12:09:06.080Z,937.65
2022-09-07T12:10:06.725Z,937.66
2022-09-07T12:11:07.602Z,937.67
2022-09-07T12:12:08.454Z,937.65
2022-09-07T12:13:09.394Z,937.67
2022-09-07T12:14:10.046Z,937.67
2022-09-07T12:15:10.758Z,937.65
2022-09-07T12:16:11.777Z,937.64
2022-09-07T12:18:13.074Z,937.64
2022-09-07T12:19:13.351Z,937.6
2022-09-07T12:20:13.985Z,937.58
2022-09-07T12:21:14.630Z,937.53
2022-09-07T12:22:14.867Z,937.51
2022-09-07T12:23:15.797Z,937.48
2022-09-07T12:24:16.035Z,937.47
2022-09-07T12:25:16.671Z,937.44
2022-09-07T12:26:17.656Z,937.41
2022-09-07T12:27:18.250Z,937.41
2022-09-07T12:28:21.972Z,937.35
2022-09-07T12:29:19.487Z,937.34
2022-09-07T12:30:20.125Z,937.39
2022-09-07T12:31:20.816Z,937.4
2022-09-07T12:32:59.580Z,937.38
2022-09-07T12:33:59.673Z,937.39
2022-09-07T12:35:00.597Z,937.39
2022-09-07T12:36:01.534Z,937.38
2022-09-07T12:37:01.777Z,937.38
2022-09-07T12:38:01.943Z,937.34
2022-09-07T12:39:03.011Z,937.33
2022-09-07T12:40:03.445Z,937.39
2022-09-07T12:41:04.361Z,937.35
2022-09-07T12:43:09.812Z,937.34
2022-09-07T12:44:06.036Z,937.34
2022-09-07T12:45:07.148Z,937.33
2022-09-07T12:46:07.421Z,937.28
2022-09-07T12:47:08.355Z,937.31
2022-09-07T12:48:08.443Z,937.34
2022-09-07T12:49:08.845Z,937.32
2022-09-07T12:50:10.040Z,937.32
2022-09-07T12:51:10.038Z,937.29
2022-09-07T12:52:15.553Z,937.31
2022-09-07T12:53:10.942Z,937.29
2022-09-07T12:54:11.576Z,937.27
2022-09-07T12:55:29.248Z,937.27
2022-09-07T12:56:28.724Z,937.27
2022-09-07T12:57:29.538Z,937.22
2022-09-07T12:58:29.590Z,937.21
2022-09-07T12:59:30.362Z,937.2
2022-09-07T13:00:30.566Z,937.22
2022-09-07T13:01:30.899Z,937.19
2022-09-07T13:02:31.350Z,937.19
2022-09-07T13:04:32.338Z,937.15
2022-09-07T13:05:32.974Z,937.16
2022-09-07T13:07:33.871Z,937.1
2022-09-07T13:08:34.078Z,937.07
2022-09-07T13:09:35.070Z,937.08
2022-09-07T13:10:35.314Z,937.06
2022-09-07T13:11:35.953Z,937.06
2022-09-07T13:14:04.127Z,937.03
2022-09-07T13:14:55.017Z,937.04
2022-09-07T13:15:55.805Z,937.03
2022-09-07T13:17:57.336Z,936.96
2022-09-07T13:18:57.542Z,936.95
2022-09-07T13:19:57.995Z,936.91
2022-09-07T13:20:58.904Z,936.91
2022-09-07T13:21:59.140Z,936.89